In Rescue
 
Open Full Screen Window  High Contrast Mode
Wind Gusting 00 knots
08
June 22, 2024 9:19 PM EDT
Present Weather: Rain
Weather Information
Wind Direction
  270 °
Wind Speed
  08 kt (9 mph)
Wind Gust
  00 kt (0 mph)
Altimeter
29.67 in
Visibility
1 3/4 SM
Temperature
19° C
66° F
Dewpoint
18° C
64° F
Humidity
94%
Sky Condition
Overcast @ 200 ft
LIFR

METAR KCVX 230119Z AUTO 27008KT 1 3/4SM RA OVC002 19/18 A2967 RMK AO2 T01900179

FAA Disclaimer: The data displayed is for advisory purposes only and is not to be used for flight planning or operations.